< < Back
Terminal Aerodrome Forecast


Current Version              Previous Versions:   1  2  3  4  5  6  7  8  9  

Terminal Aerodrome Forecast

074
FTUS42 KTAE 172300
TAFVLD
TAF
KVLD 172338Z 1800/1824 09010KT P6SM OVC020
     FM180700 08009KT 5SM RA OVC008
     FM181200 06013G20KT 2SM +RA VCTS OVC007CB
     FM182300 10017G25KT 4SM TSRA OVC010CB=



Latest METAR

566
SAUS70 KWBC 181000 RRA
MTRVLD
METAR KVLD 180953Z AUTO 04009KT 5SM RA SCT010 BKN048 OVC090 17/14 A3013
RMK AO2 RAB45 SLP209 P0002 T01670139


USA.gov is the U.S. government's official web portal to all federal, state and local government web resources and services.